KMAF

Midland International Air and Space Port Airport

Midland, Texas, USA
KMAF 151122Z 1512/1612 16011KT P6SM FEW250 FM160000 15014G22KT P6SM FEW250 FM160500 17009KT P6SM SKC
Issued Valid From Valid To
Aug-15 @ 11:22 UTC
(an hour ago)
Aug-15 @ 12:00 UTC
(42 minutes ago)
Aug-16 @ 12:00 UTC
(in 23 hours)
Aug-15 @ 12:00 to Aug-16 @ 00:00
KMAF 151122Z 1512/1612 16011KT P6SM FEW250
Wind Visibility Clouds
160° at 11 knots Greater than 6 miles
  • Few at 25,000' AGL
From Aug-16 @ 00:00 to Aug-16 @ 05:00
FM160000 15014G22KT P6SM FEW250
Wind Visibility Clouds
150° at 14 knots
 Gusting to 22 knots
Greater than 6 miles
  • Few at 25,000' AGL
From Aug-16 @ 05:00 to Aug-16 @ 12:00
FM160500 17009KT P6SM SKC
Wind Visibility Clouds
170° at 9 knots Greater than 6 miles
  • Clear skies
KMAF 151122Z 1512/1612 16011KT P6SM FEW250 FM160000 15014G22KT P6SM FEW250 FM160500 17009KT P6SM SKC
Issued Aug-15 @ 11:22 UTC
(an hour ago)
Valid From Aug-15 @ 12:00 UTC
(42 minutes ago)
Valid To Aug-16 @ 12:00 UTC
(in 23 hours)
Aug-15 @ 12:00 - Aug-16 @ 00:00
Wind Visibility
160° at 11 knots Greater than 6 miles
Clouds
  • Few at 25,000' AGL
From Aug-16 @ 00:00 - Aug-16 @ 05:00
Wind Visibility
150° at 14 knots
 Gusting to 22 knots
Greater than 6 miles
Clouds
  • Few at 25,000' AGL
From Aug-16 @ 05:00 - Aug-16 @ 12:00
Wind Visibility
170° at 9 knots Greater than 6 miles
Clouds
  • Clear skies